Impacts METAR Board
IDs:

KPHL - Philadelphia Intl, PA, US

Updated at: 1700 UTC 26 Apr 2018
Potential Impact None Slight Moderate High
Time 26/05Z 26/06Z 26/07Z 26/08Z 26/09Z 26/10Z 26/11Z 26/12Z 26/13Z 26/14Z 26/15Z 26/16Z 26/17Z
Temp61 61 60 59 56 52 51 52 53 56 57 59 62
Dewpt56 53 51 49 46 40 38 38 38 38 39 39 41
Altim29.67 29.66 29.66 29.67 29.70 29.75 29.77 29.78 29.79 29.81 29.82 29.81 29.81
VIS10 10 10 10 10 10 10 10 10 10 10 10 10
CIG150 43 45 48 55 -- -- -- -- -- -- -- --
CoverBKNOVCBKNBKNBKNFEWSCTSCTSCTSCTSCTSCTSCT
FltCatVFRVFRVFRVFRVFRVFRVFRVFRVFRVFRVFRVFRVFR
WX--------------------------
WDir300300300300280280300310300300280300270
WSpd7 9 10 11 15 13 10 13 15 10 8 9 14
WGst-- -- -- -- -- -- 20 -- -- 18 -- -- 19
Raw hourly METARs
KPHL 260454Z 30007KT 10SM SCT070 BKN150 BKN250 16/13 A2967 RMK AO2 SLP045 T01610133 402000117 $
KPHL 260554Z 30009KT 10SM BKN043 OVC065 16/12 A2966 RMK AO2 SLP042 T01610117 10178 20156 56006 $
KPHL 260654Z 30010KT 10SM BKN045 BKN075 16/11 A2966 RMK AO2 SLP042 T01560106 $
KPHL 260754Z 30011KT 10SM BKN048 BKN075 15/09 A2967 RMK AO2 SLP046 T01500094 $
KPHL 260854Z 28015KT 10SM BKN055 13/08 A2970 RMK AO2 SLP058 T01330078 53016 $
KPHL 260954Z 28013KT 10SM FEW055 11/04 A2975 RMK AO2 SLP072 T01110044 $
KPHL 261054Z 30010G20KT 10SM FEW055 SCT280 11/03 A2977 RMK AO2 SLP080 T01060033 $
KPHL 261154Z 31013KT 10SM FEW055 SCT280 11/03 A2978 RMK AO2 SLP084 T01110033 10161 20106 51026 $
KPHL 261254Z 30015KT 10SM FEW030 SCT280 12/03 A2979 RMK AO2 SLP088 T01170033 $
KPHL 261354Z 30010G18KT 10SM FEW035 SCT280 13/03 A2981 RMK AO2 SLP094 T01330033 $
KPHL 261454Z 28008KT 10SM FEW040 SCT280 14/04 A2982 RMK AO2 SLP096 T01390039 51013 $
KPHL 261554Z 30009KT 10SM FEW040 SCT280 15/04 A2981 RMK AO2 SLP095 T01500039 $
KPHL 261654Z 27014G19KT 10SM FEW045 SCT220 SCT280 17/05 A2981 RMK AO2 SLP095 T01670050 $



Page loaded:  17:04 UTC  |   10:04 AM Pacific  |   11:04 AM Mountain  |   12:04 PM Central  |   01:04 PM Eastern

 

ADVISORIES

FORECASTS

FORECASTS

OBSERVATIONS

USER TOOLS

ABOUT US